createdAt,value
2022-08-05T00:01:36.287Z,50.60
2022-08-05T00:04:18.243Z,51.77
2022-08-05T00:06:51.753Z,52.72
2022-08-05T00:09:21.588Z,53.66
2022-08-05T00:11:55.755Z,55.13
2022-08-05T00:14:31.488Z,56.36
2022-08-05T00:17:01.646Z,57.02
2022-08-05T00:19:33.097Z,57.32
2022-08-05T00:22:06.488Z,57.83
2022-08-05T00:24:35.978Z,57.48
2022-08-05T00:27:14.052Z,57.95
2022-08-05T00:29:46.301Z,58.96
2022-08-05T00:32:15.912Z,58.80
2022-08-05T00:35:04.726Z,58.83
2022-08-05T00:37:52.824Z,58.34
2022-08-05T00:40:26.979Z,57.66
2022-08-05T00:42:58.497Z,58.57
2022-08-05T00:45:38.675Z,58.29
2022-08-05T00:48:12.908Z,58.21
2022-08-05T00:50:44.151Z,59.87
2022-08-05T00:54:01.242Z,60.21
2022-08-05T00:56:08.826Z,61.20
2022-08-05T00:58:38.864Z,61.63
2022-08-05T01:01:12.457Z,62.51
2022-08-05T01:03:42.372Z,63.02
2022-08-05T01:06:15.347Z,62.79
2022-08-05T01:08:47.592Z,62.63
2022-08-05T01:11:22.550Z,62.50
2022-08-05T01:14:00.262Z,62.29
2022-08-05T01:16:32.461Z,63.07
2022-08-05T01:19:03.760Z,64.52
2022-08-05T01:21:45.066Z,65.61
2022-08-05T01:24:30.157Z,65.58
2022-08-05T01:27:19.200Z,65.18
2022-08-05T01:29:52.772Z,63.75
2022-08-05T01:32:27.701Z,64.12
2022-08-05T01:34:59.859Z,64.64
2022-08-05T01:37:33.756Z,64.56
2022-08-05T01:40:07.344Z,66.84
2022-08-05T01:42:37.216Z,67.69
2022-08-05T01:45:10.808Z,67.57
2022-08-05T01:47:43.425Z,68.43
2022-08-05T01:50:15.882Z,71.04
2022-08-05T01:52:50.010Z,70.29
2022-08-05T01:55:20.521Z,68.95
2022-08-05T01:58:29.708Z,67.62
2022-08-05T02:00:44.401Z,66.84
2022-08-05T02:03:28.983Z,67.55
2022-08-05T02:06:03.371Z,66.98
2022-08-05T02:08:54.888Z,68.93
2022-08-05T02:11:33.349Z,69.39
2022-08-05T02:14:04.875Z,69.29
2022-08-05T02:16:39.474Z,69.86
2022-08-05T02:19:11.369Z,68.02
2022-08-05T02:21:46.884Z,67.67
2022-08-05T02:24:23.049Z,67.63
2022-08-05T02:26:55.666Z,66.81
2022-08-05T02:29:58.413Z,65.89
2022-08-05T02:32:24.136Z,65.79
2022-08-05T02:34:59.492Z,65.00
2022-08-05T02:37:32.019Z,65.31
2022-08-05T02:40:01.562Z,65.19
2022-08-05T02:42:36.000Z,65.72
2022-08-05T02:45:05.998Z,67.03
2022-08-05T02:48:06.729Z,67.06
2022-08-05T02:50:28.946Z,67.04
2022-08-05T02:52:58.406Z,67.23
2022-08-05T02:55:51.983Z,67.44
2022-08-05T02:58:17.837Z,66.22
2022-08-05T03:00:49.996Z,66.31
2022-08-05T03:03:23.669Z,67.25
2022-08-05T03:06:54.425Z,67.82
2022-08-05T03:08:43.248Z,67.10
2022-08-05T03:11:56.477Z,64.95
2022-08-05T03:14:13.439Z,65.25
2022-08-05T03:16:43.228Z,63.34
2022-08-05T03:19:20.374Z,63.99
2022-08-05T03:22:05.037Z,63.32
2022-08-05T03:24:46.994Z,62.40
2022-08-05T03:27:17.222Z,62.72
2022-08-05T03:30:08.202Z,61.52
2022-08-05T03:32:36.455Z,60.91
2022-08-05T03:35:09.635Z,60.33
2022-08-05T03:37:46.262Z,60.79
2022-08-05T03:40:24.453Z,61.49
2022-08-05T03:43:58.804Z,61.49
2022-08-05T03:45:55.319Z,62.04
2022-08-05T03:48:29.027Z,62.00
2022-08-05T03:52:34.957Z,61.83
2022-08-05T03:56:01.135Z,61.35
2022-08-05T03:56:48.228Z,61.34
2022-08-05T03:59:20.661Z,61.63
2022-08-05T04:01:52.062Z,61.05
2022-08-05T04:04:22.267Z,60.77
2022-08-05T04:06:58.647Z,60.84
2022-08-05T04:09:28.082Z,59.93
2022-08-05T04:11:57.975Z,60.35
2022-08-05T04:14:29.903Z,60.40
2022-08-05T04:17:02.847Z,60.32
2022-08-05T04:19:32.561Z,59.08
2022-08-05T04:22:09.849Z,58.84
2022-08-05T04:24:44.264Z,58.96
2022-08-05T04:27:15.301Z,59.25
2022-08-05T04:29:45.028Z,59.41
2022-08-05T04:32:14.699Z,59.13
2022-08-05T04:34:49.514Z,59.15
2022-08-05T04:38:02.055Z,59.29
2022-08-05T04:40:19.782Z,59.18
2022-08-05T04:42:49.334Z,59.28
2022-08-05T04:45:22.978Z,59.30
2022-08-05T04:48:10.334Z,58.63
2022-08-05T04:51:03.698Z,59.16
2022-08-05T04:53:41.079Z,58.99
2022-08-05T04:56:33.050Z,58.31
2022-08-05T04:59:00.876Z,58.14
2022-08-05T05:02:05.709Z,58.32
2022-08-05T05:04:38.313Z,58.19
2022-08-05T05:07:09.404Z,57.79
2022-08-05T05:09:41.637Z,57.83
2022-08-05T05:12:12.071Z,57.92
2022-08-05T05:14:49.177Z,58.68
2022-08-05T05:17:24.171Z,58.98
2022-08-05T05:19:56.765Z,59.50
2022-08-05T05:22:26.955Z,60.13
2022-08-05T05:25:01.154Z,60.49
2022-08-05T05:27:45.767Z,60.71
2022-08-05T05:30:29.394Z,61.31
2022-08-05T05:33:03.849Z,61.27
2022-08-05T05:35:43.570Z,61.59
2022-08-05T05:38:14.111Z,61.54
2022-08-05T05:40:49.423Z,61.37
2022-08-05T05:43:27.591Z,61.92
2022-08-05T05:46:15.793Z,62.38
2022-08-05T05:48:47.885Z,62.02
2022-08-05T05:51:22.171Z,62.47
2022-08-05T05:53:57.554Z,62.50
2022-08-05T05:56:34.428Z,63.09
2022-08-05T05:59:06.506Z,63.36
2022-08-05T06:01:38.701Z,63.38
2022-08-05T06:04:11.930Z,63.50
2022-08-05T06:06:42.634Z,63.70
2022-08-05T06:09:16.974Z,64.68
2022-08-05T06:12:01.732Z,65.29
2022-08-05T06:14:32.057Z,65.83
2022-08-05T06:17:24.218Z,66.23
2022-08-05T06:19:57.058Z,65.86
2022-08-05T06:22:30.067Z,65.78
2022-08-05T06:24:59.577Z,64.53
2022-08-05T06:28:09.409Z,64.62
2022-08-05T06:30:21.501Z,63.72
2022-08-05T06:32:51.031Z,62.86
2022-08-05T06:36:07.052Z,62.06
2022-08-05T06:38:11.958Z,60.99
2022-08-05T06:40:42.084Z,60.94
2022-08-05T06:43:57.661Z,60.93
2022-08-05T06:46:07.342Z,60.55
2022-08-05T06:48:56.298Z,59.20
2022-08-05T06:51:30.077Z,59.46
2022-08-05T06:54:01.883Z,59.92
2022-08-05T06:56:34.318Z,59.62
2022-08-05T06:59:08.498Z,58.66
2022-08-05T07:01:41.529Z,59.16
2022-08-05T07:04:13.982Z,60.76
2022-08-05T07:06:43.672Z,60.34
2022-08-05T07:09:13.901Z,60.53
2022-08-05T07:11:49.403Z,61.03
2022-08-05T07:14:34.280Z,60.42
2022-08-05T07:17:59.467Z,61.21
2022-08-05T07:22:44.129Z,61.13
2022-08-05T07:25:53.975Z,58.85
2022-08-05T07:28:08.227Z,60.77
2022-08-05T07:30:41.999Z,59.94
2022-08-05T07:33:16.838Z,58.56
2022-08-05T07:36:04.526Z,58.22
2022-08-05T07:38:43.600Z,58.34
2022-08-05T07:42:09.013Z,58.36
2022-08-05T07:44:04.404Z,56.71
2022-08-05T07:46:36.452Z,56.93
2022-08-05T07:49:07.962Z,57.02
2022-08-05T07:51:53.777Z,57.40
2022-08-05T07:54:31.021Z,56.95
2022-08-05T07:57:22.694Z,56.77
2022-08-05T07:59:53.497Z,56.38
2022-08-05T08:02:31.293Z,55.88
2022-08-05T08:05:18.837Z,55.36
2022-08-05T08:08:00.129Z,55.68
2022-08-05T08:10:30.457Z,54.78
2022-08-05T08:13:00.739Z,54.25
2022-08-05T08:16:33.433Z,53.60
2022-08-05T08:18:23.314Z,54.11
2022-08-05T08:21:02.713Z,53.49
2022-08-05T08:24:01.327Z,54.14
2022-08-05T08:26:26.920Z,54.28
2022-08-05T08:29:09.767Z,54.84
2022-08-05T08:31:48.850Z,54.29
2022-08-05T08:34:30.147Z,54.25
2022-08-05T08:37:05.218Z,52.67
2022-08-05T08:39:37.555Z,51.21
2022-08-05T08:42:32.362Z,52.50
2022-08-05T08:45:20.620Z,50.46
2022-08-05T08:48:11.758Z,50.01
2022-08-05T08:51:03.121Z,49.54
2022-08-05T08:53:30.678Z,50.04
2022-08-05T08:56:04.146Z,49.59
2022-08-05T08:58:44.036Z,50.15
2022-08-05T09:01:18.531Z,50.57
2022-08-05T09:03:48.358Z,50.08
2022-08-05T09:06:28.563Z,51.07
2022-08-05T09:08:59.426Z,51.66
2022-08-05T09:11:53.108Z,52.92
2022-08-05T09:14:56.383Z,52.31
2022-08-05T09:17:09.452Z,52.55
2022-08-05T09:20:01.605Z,51.93
2022-08-05T09:22:33.122Z,51.97
2022-08-05T09:25:23.709Z,51.37
2022-08-05T09:28:05.054Z,51.33
2022-08-05T09:30:36.292Z,51.67
2022-08-05T09:33:08.465Z,52.07
2022-08-05T09:35:56.402Z,52.60
2022-08-05T09:38:29.594Z,51.36
2022-08-05T09:41:05.252Z,51.27
2022-08-05T09:43:40.635Z,52.24
2022-08-05T09:46:28.015Z,52.30
2022-08-05T09:49:07.234Z,52.17
2022-08-05T09:51:49.632Z,51.88
2022-08-05T09:54:28.768Z,51.65
2022-08-05T09:57:01.758Z,51.39
2022-08-05T09:59:36.911Z,51.27
2022-08-05T10:02:06.910Z,50.43
2022-08-05T10:04:39.748Z,50.50
2022-08-05T10:07:20.188Z,50.83
2022-08-05T10:10:14.639Z,51.00
2022-08-05T10:12:50.469Z,50.99
2022-08-05T10:15:25.815Z,50.28
2022-08-05T10:18:14.072Z,49.47
2022-08-05T10:20:47.954Z,49.18
2022-08-05T10:23:34.485Z,49.45
2022-08-05T10:26:13.830Z,49.14
2022-08-05T10:28:44.859Z,48.83
2022-08-05T10:32:50.668Z,49.32
2022-08-05T10:34:07.163Z,49.54
2022-08-05T10:36:37.988Z,49.56
2022-08-05T10:39:15.277Z,49.90
2022-08-05T10:42:01.072Z,50.04
2022-08-05T10:44:30.808Z,49.97
2022-08-05T10:47:00.382Z,50.57
2022-08-05T10:49:33.276Z,51.29
2022-08-05T10:52:05.270Z,51.69
2022-08-05T10:54:56.795Z,52.03
2022-08-05T10:57:32.089Z,51.08
2022-08-05T11:00:24.651Z,51.63
2022-08-05T11:03:25.702Z,50.18
2022-08-05T11:06:16.074Z,49.60
2022-08-05T11:09:17.030Z,48.49
2022-08-05T11:11:53.520Z,48.92
2022-08-05T11:17:59.038Z,45.88
2022-08-05T11:20:44.011Z,45.22
2022-08-05T11:24:02.290Z,43.86
2022-08-05T11:26:29.040Z,44.23
2022-08-05T11:29:13.148Z,43.80
2022-08-05T11:31:58.242Z,44.09
2022-08-05T11:34:38.959Z,43.46
2022-08-05T11:38:29.279Z,44.32
2022-08-05T11:40:02.971Z,43.81
2022-08-05T11:42:40.350Z,43.67
2022-08-05T11:45:23.083Z,43.58
2022-08-05T11:48:02.711Z,43.42
2022-08-05T11:50:32.910Z,43.77
2022-08-05T11:53:09.811Z,44.55
2022-08-05T11:55:39.533Z,44.14
2022-08-05T11:58:11.959Z,43.60
2022-08-05T12:00:47.011Z,44.63
2022-08-05T12:03:31.659Z,44.12
2022-08-05T12:06:03.301Z,43.60
2022-08-05T12:08:36.378Z,44.30
2022-08-05T12:11:09.098Z,42.83
2022-08-05T12:13:49.240Z,43.42
2022-08-05T12:16:25.494Z,42.88
2022-08-05T12:18:56.599Z,42.82
2022-08-05T12:21:30.315Z,43.38
2022-08-05T12:24:04.827Z,42.82
2022-08-05T12:26:35.633Z,42.53
2022-08-05T12:29:05.554Z,41.75
2022-08-05T12:31:50.237Z,42.62
2022-08-05T12:34:26.799Z,43.09
2022-08-05T12:36:56.556Z,43.98
2022-08-05T12:39:34.390Z,45.15
2022-08-05T12:42:14.641Z,44.58
2022-08-05T12:44:44.964Z,44.69
2022-08-05T12:47:17.854Z,42.67
2022-08-05T12:50:03.536Z,42.18
2022-08-05T12:52:39.507Z,42.70
2022-08-05T12:55:25.372Z,42.91
2022-08-05T12:58:50.632Z,43.31
2022-08-05T13:02:00.690Z,43.51
2022-08-05T13:03:43.227Z,43.80
2022-08-05T13:06:16.508Z,44.56
2022-08-05T13:08:50.719Z,45.27
2022-08-05T13:11:25.553Z,46.19
2022-08-05T13:14:20.455Z,49.72
2022-08-05T13:17:06.191Z,49.88
2022-08-05T13:19:52.476Z,50.67
2022-08-05T13:22:28.504Z,50.86
2022-08-05T13:25:00.889Z,51.05
2022-08-05T13:27:38.075Z,52.37
2022-08-05T13:30:32.978Z,53.02
2022-08-05T13:33:01.550Z,52.57
2022-08-05T13:35:47.300Z,51.38
2022-08-05T13:38:31.009Z,51.42
2022-08-05T13:41:05.905Z,51.54
2022-08-05T13:43:44.271Z,50.75
2022-08-05T13:46:50.544Z,49.97
2022-08-05T13:49:11.759Z,48.98
2022-08-05T13:51:46.296Z,48.55
2022-08-05T13:54:17.021Z,48.38
2022-08-05T13:56:51.779Z,46.82
2022-08-05T13:59:24.534Z,46.47
2022-08-05T14:01:57.737Z,45.96
2022-08-05T14:04:41.552Z,46.30
2022-08-05T14:07:25.742Z,46.19
2022-08-05T14:10:03.841Z,46.24
2022-08-05T14:12:33.470Z,46.98
2022-08-05T14:16:05.995Z,47.34
2022-08-05T14:17:52.349Z,47.80
2022-08-05T14:20:27.306Z,47.82
2022-08-05T14:22:59.615Z,47.73
2022-08-05T14:25:30.245Z,48.29
2022-08-05T14:27:59.704Z,47.99
2022-08-05T14:30:30.153Z,48.05
2022-08-05T14:32:59.625Z,47.80
2022-08-05T14:35:49.955Z,48.49
2022-08-05T14:38:31.623Z,48.62
2022-08-05T14:41:06.966Z,48.71
2022-08-05T14:43:58.912Z,49.23
2022-08-05T14:46:28.710Z,49.44
2022-08-05T14:48:59.558Z,48.57
2022-08-05T14:51:33.252Z,48.74
2022-08-05T14:54:08.543Z,48.83
2022-08-05T14:56:54.931Z,48.41
2022-08-05T14:59:24.460Z,48.10
2022-08-05T15:01:54.283Z,48.47
2022-08-05T15:04:24.028Z,48.58
2022-08-05T15:06:56.917Z,47.83
2022-08-05T15:09:51.411Z,46.89
2022-08-05T15:12:18.422Z,47.48
2022-08-05T15:14:49.882Z,47.32
2022-08-05T15:17:46.058Z,47.33
2022-08-05T15:20:19.103Z,46.95
2022-08-05T15:22:55.134Z,46.73
2022-08-05T15:25:40.870Z,46.54
2022-08-05T15:28:17.056Z,46.90
2022-08-05T15:30:46.790Z,47.12
2022-08-05T15:34:04.469Z,47.29
2022-08-05T15:36:17.720Z,47.00
2022-08-05T15:40:39.724Z,46.55
2022-08-05T15:41:57.570Z,46.54
2022-08-05T15:44:32.370Z,45.32
2022-08-05T15:47:04.324Z,45.70
2022-08-05T15:49:53.726Z,44.58
2022-08-05T15:52:51.978Z,44.48
2022-08-05T15:55:16.089Z,44.86
2022-08-05T15:57:48.826Z,45.40
2022-08-05T16:00:26.137Z,45.10
2022-08-05T16:03:08.970Z,44.86
2022-08-05T16:05:39.142Z,45.00
2022-08-05T16:08:11.302Z,44.94
2022-08-05T16:10:45.495Z,45.34
2022-08-05T16:13:23.278Z,44.54
2022-08-05T16:15:53.795Z,43.88
2022-08-05T16:18:27.824Z,43.95
2022-08-05T16:20:59.942Z,44.07
2022-08-05T16:23:53.999Z,43.91
2022-08-05T16:26:26.535Z,43.59
2022-08-05T16:28:59.097Z,44.11
2022-08-05T16:31:56.250Z,43.77
2022-08-05T16:34:17.996Z,43.06
2022-08-05T16:36:47.457Z,42.73
2022-08-05T16:39:18.138Z,42.92
2022-08-05T16:42:14.309Z,43.02
2022-08-05T16:44:42.287Z,42.47
2022-08-05T16:47:24.653Z,42.62
2022-08-05T16:50:03.337Z,43.30
2022-08-05T16:52:33.088Z,43.04
2022-08-05T16:55:04.337Z,42.45
2022-08-05T16:57:53.037Z,42.10
2022-08-05T17:00:33.914Z,42.87
2022-08-05T17:03:04.711Z,42.16
2022-08-05T17:05:46.250Z,41.45
2022-08-05T17:08:33.439Z,41.84
2022-08-05T17:11:12.574Z,41.49
2022-08-05T17:13:46.550Z,41.31
2022-08-05T17:16:36.541Z,40.46
2022-08-05T17:19:09.605Z,40.31
2022-08-05T17:21:40.403Z,39.63
2022-08-05T17:24:30.196Z,39.20
2022-08-05T17:27:00.427Z,38.78
2022-08-05T17:29:33.607Z,39.49
2022-08-05T17:32:17.418Z,39.08
2022-08-05T17:34:48.042Z,39.10
2022-08-05T17:37:39.324Z,38.41
2022-08-05T17:40:12.365Z,38.13
2022-08-05T17:42:49.890Z,37.83
2022-08-05T17:45:22.545Z,37.39
2022-08-05T17:47:56.343Z,37.32
2022-08-05T17:50:28.204Z,36.82
2022-08-05T17:53:00.965Z,36.92
2022-08-05T17:55:37.353Z,37.44
2022-08-05T17:58:09.866Z,36.82
2022-08-05T18:00:45.489Z,37.15
2022-08-05T18:06:11.899Z,37.51
2022-08-05T18:08:46.190Z,37.41
2022-08-05T18:11:24.390Z,37.58
2022-08-05T18:14:03.696Z,38.03
2022-08-05T18:16:34.078Z,38.05
2022-08-05T18:19:07.395Z,38.11
2022-08-05T18:22:08.308Z,38.16
2022-08-05T18:24:26.849Z,38.24
2022-08-05T18:26:57.675Z,38.44
2022-08-05T18:29:40.238Z,38.08
2022-08-05T18:32:13.027Z,38.56
2022-08-05T18:34:45.262Z,38.39
2022-08-05T18:37:34.065Z,38.75
2022-08-05T18:40:57.471Z,39.54
2022-08-05T18:42:54.547Z,39.41
2022-08-05T18:45:24.808Z,39.72
2022-08-05T18:47:56.661Z,40.25
2022-08-05T18:50:42.281Z,40.20
2022-08-05T18:53:20.579Z,39.79
2022-08-05T18:55:54.506Z,39.82
2022-08-05T18:58:28.669Z,40.22
2022-08-05T19:00:58.648Z,40.75
2022-08-05T19:03:53.385Z,40.47
2022-08-05T19:06:34.372Z,40.68
2022-08-05T19:09:06.911Z,41.25
2022-08-05T19:11:59.848Z,40.91
2022-08-05T19:14:59.313Z,40.99
2022-08-05T19:17:15.584Z,41.18
2022-08-05T19:19:46.808Z,41.36
2022-08-05T19:22:22.866Z,41.94
2022-08-05T19:25:00.730Z,41.64
2022-08-05T19:27:32.051Z,41.66
2022-08-05T19:30:03.016Z,41.51
2022-08-05T19:32:33.516Z,41.82
2022-08-05T19:35:06.438Z,41.80
2022-08-05T19:38:04.565Z,41.80
2022-08-05T19:40:28.208Z,42.12
2022-08-05T19:43:04.975Z,41.98
2022-08-05T19:45:36.790Z,41.92
2022-08-05T19:48:07.236Z,42.11
2022-08-05T19:50:44.769Z,42.02
2022-08-05T19:53:16.820Z,41.95
2022-08-05T19:56:14.803Z,42.29
2022-08-05T19:58:56.153Z,42.67
2022-08-05T20:01:28.205Z,42.77
2022-08-05T20:03:58.095Z,42.94
2022-08-05T20:06:29.183Z,43.65
2022-08-05T20:09:06.086Z,43.37
2022-08-05T20:11:48.123Z,43.50
2022-08-05T20:14:26.600Z,43.54
2022-08-05T20:16:59.159Z,43.68
2022-08-05T20:19:36.293Z,43.95
2022-08-05T20:22:10.637Z,44.32
2022-08-05T20:24:43.476Z,44.22
2022-08-05T20:27:13.266Z,44.25
2022-08-05T20:29:52.194Z,44.28
2022-08-05T20:32:27.515Z,44.87
2022-08-05T20:34:57.225Z,44.50
2022-08-05T20:38:05.499Z,44.43
2022-08-05T20:40:19.276Z,44.75
2022-08-05T20:42:49.959Z,44.70
2022-08-05T20:45:19.423Z,44.55
2022-08-05T20:47:50.515Z,44.44
2022-08-05T20:50:21.229Z,44.31
2022-08-05T20:52:52.555Z,44.56
2022-08-05T20:55:56.207Z,44.05
2022-08-05T20:58:15.365Z,44.62
2022-08-05T21:00:54.236Z,44.41
2022-08-05T21:03:24.329Z,44.21
2022-08-05T21:05:55.550Z,44.03
2022-08-05T21:08:32.864Z,44.05
2022-08-05T21:11:15.283Z,43.98
2022-08-05T21:14:03.308Z,43.43
2022-08-05T21:16:35.412Z,43.37
2022-08-05T21:19:05.334Z,43.51
2022-08-05T21:21:39.805Z,43.08
2022-08-05T21:24:20.098Z,43.65
2022-08-05T21:26:57.967Z,43.25
2022-08-05T21:29:31.732Z,42.78
2022-08-05T21:32:02.298Z,42.55
2022-08-05T21:34:32.835Z,42.80
2022-08-05T21:37:02.642Z,42.98
2022-08-05T21:39:34.574Z,42.96
2022-08-05T21:42:07.286Z,43.03
2022-08-05T21:44:56.776Z,43.57
2022-08-05T21:47:54.890Z,44.39
2022-08-05T21:50:16.028Z,44.76
2022-08-05T21:52:47.100Z,44.92
2022-08-05T21:55:17.257Z,45.49
2022-08-05T21:57:49.585Z,45.18
2022-08-05T22:00:19.382Z,45.69
2022-08-05T22:02:48.833Z,45.07
2022-08-05T22:05:18.310Z,45.61
2022-08-05T22:07:58.682Z,44.64
2022-08-05T22:10:31.817Z,44.49
2022-08-05T22:13:09.348Z,44.30
2022-08-05T22:16:01.171Z,44.45
2022-08-05T22:18:34.293Z,44.81
2022-08-05T22:21:04.162Z,44.84
2022-08-05T22:24:01.242Z,44.77
2022-08-05T22:26:49.929Z,44.76
2022-08-05T22:29:26.859Z,44.66
2022-08-05T22:32:02.738Z,44.66
2022-08-05T22:34:32.985Z,44.16
2022-08-05T22:37:03.694Z,44.40
2022-08-05T22:39:34.628Z,43.70
2022-08-05T22:42:12.352Z,44.11
2022-08-05T22:44:53.753Z,43.89
2022-08-05T22:47:28.994Z,43.99
2022-08-05T22:50:19.698Z,44.17
2022-08-05T22:52:50.207Z,43.82
2022-08-05T22:55:21.660Z,43.43
2022-08-05T22:57:51.611Z,44.00
2022-08-05T23:00:24.438Z,43.83
2022-08-05T23:02:56.247Z,44.36
2022-08-05T23:05:27.812Z,44.56
2022-08-05T23:07:57.301Z,45.36
2022-08-05T23:10:26.770Z,45.64
2022-08-05T23:12:56.420Z,45.78
2022-08-05T23:15:35.146Z,45.42
2022-08-05T23:18:11.469Z,45.22
2022-08-05T23:20:43.033Z,44.95
2022-08-05T23:23:12.756Z,45.36
2022-08-05T23:25:51.089Z,45.22
2022-08-05T23:28:27.821Z,44.94
2022-08-05T23:31:16.084Z,45.03
2022-08-05T23:34:03.272Z,43.75
2022-08-05T23:36:39.587Z,43.89
2022-08-05T23:39:17.097Z,44.12
2022-08-05T23:41:54.037Z,44.06
2022-08-05T23:44:31.167Z,44.12
2022-08-05T23:47:15.234Z,44.45
2022-08-05T23:49:46.042Z,44.70
2022-08-05T23:52:31.677Z,44.59
2022-08-05T23:55:02.168Z,44.38
2022-08-05T23:57:34.849Z,45.14
